Flight Number: EUR3087 Duration: 11:30
Departure: Bangkok Suvarnabhumi (VTBS) at 06:30 Distance: 5167 Nm
Arrival: Gatwick Airport (EGKK) at 18:00 Equipment: B747

Weather Information
Chon Buri, Thailand (VTBS) 13-22N 100-59E 2M Sep 21, 2017 - 09:30 AM EDT / 2017.09.21 1330 UTC
Wind: Variable at 7 MPH (6 KT):0
Visibility: 1 mile(s):0
Sky conditions: mostly cloudy Weather: rain with thunder; Cumulonimbus clouds observed Temperature: 82 F (28 C) Dew Point: 82 F (28 C) Relative Humidity: 100% Pressure (altimeter): 29.74 in. Hg (1007 hPa)
ob: VTBS 211330Z VRB06KT 3000 TSRA FEW018CB SCT035 BKN100 28/28 Q1007 RERA BECMG TL1340 5000 TSRA cycle: 13
Sunrise: 23:08 Sunset: 11:11 (UTC)

London / Gatwick Airport, United Kingdom (EGKK) 51-09N 000-11W 0M Sep 21, 2017 - 09:50 AM EDT / 2017.09.21 1350 UTC
Wind: from the SSW (200 degrees) at 10 MPH (9 KT) (direction variable):0
Visibility: greater than 7 mile(s):0
Sky conditions: mostly cloudy Temperature: 62 F (17 C) Dew Point: 53 F (12 C) Relative Humidity: 72% Pressure (altimeter): 29.94 in. Hg (1014 hPa)
ob: EGKK 211350Z 20009KT 150V230 9999 BKN021 BKN038 17/12 Q1014 cycle: 14
Sunrise: 05:50 Sunset: 17:57 (UTC)

TAF:2017/09/21 12:15 TAF EGKK 211056Z 2112/2218 20012KT 9999 SCT030 TEMPO 2113/2118 8000 -RA BKN012 PROB30 TEMPO 2114/2117 4000 RA BKN008 BECMG 2116/2119 28005KT BECMG 2122/2201 7000 TEMPO 2201/2208 3000 BR BCFG PROB40 2203/2208 0400 FG BKN001 BECMG 2208/2211 9999

This route has never been flown.

Route map